createdAt,value
2019-01-30T00:01:06.983Z,55.47
2019-01-30T00:03:39.402Z,56.10
2019-01-30T00:06:11.109Z,58.40
2019-01-30T00:08:42.612Z,60.07
2019-01-30T00:11:20.347Z,57.73
2019-01-30T00:13:52.102Z,59.27
2019-01-30T00:16:24.598Z,54.98
2019-01-30T00:18:59.088Z,52.27
2019-01-30T00:21:34.210Z,49.70
2019-01-30T00:24:08.040Z,46.07
2019-01-30T00:26:41.363Z,46.18
2019-01-30T00:29:16.894Z,41.47
2019-01-30T00:31:50.331Z,42.85
2019-01-30T00:34:22.118Z,41.17
2019-01-30T00:36:55.958Z,42.17
2019-01-30T00:39:28.236Z,38.13
2019-01-30T00:41:59.442Z,35.20
2019-01-30T00:44:35.022Z,37.00
2019-01-30T00:47:15.600Z,39.77
2019-01-30T00:49:42.239Z,42.47
2019-01-30T00:52:13.457Z,48.10
2019-01-30T00:54:46.354Z,46.00
2019-01-30T00:57:19.997Z,48.87
2019-01-30T00:59:55.454Z,52.17
2019-01-30T01:02:28.350Z,53.80
2019-01-30T01:05:00.820Z,54.23
2019-01-30T01:07:34.155Z,55.87
2019-01-30T01:10:10.265Z,57.30
2019-01-30T01:12:51.231Z,59.60
2019-01-30T01:15:24.049Z,55.53
2019-01-30T01:17:57.294Z,55.33
2019-01-30T01:20:30.642Z,54.77
2019-01-30T01:23:05.670Z,56.60
2019-01-30T01:25:38.624Z,56.03
2019-01-30T01:28:11.633Z,53.53
2019-01-30T01:30:42.707Z,51.93
2019-01-30T01:33:16.491Z,51.77
2019-01-30T01:35:52.133Z,49.33
2019-01-30T01:38:27.609Z,51.37
2019-01-30T01:41:01.616Z,51.23
2019-01-30T01:43:38.042Z,46.53
2019-01-30T01:46:09.933Z,46.10
2019-01-30T01:48:40.998Z,46.50
2019-01-30T01:51:15.039Z,48.67
2019-01-30T01:53:48.347Z,46.50
2019-01-30T01:56:20.169Z,48.35
2019-01-30T01:58:53.535Z,45.47
2019-01-30T02:01:26.427Z,44.70
2019-01-30T02:03:59.856Z,43.47
2019-01-30T02:06:31.659Z,42.60
2019-01-30T02:09:05.143Z,43.67
2019-01-30T02:11:39.187Z,41.43
2019-01-30T02:14:13.027Z,40.88
2019-01-30T02:16:45.530Z,39.43
2019-01-30T02:19:19.821Z,38.65
2019-01-30T02:21:56.769Z,38.93
2019-01-30T02:24:29.049Z,38.93
2019-01-30T02:27:01.972Z,38.40
2019-01-30T02:29:35.508Z,37.87
2019-01-30T02:32:12.640Z,35.33
2019-01-30T02:34:48.985Z,34.60
2019-01-30T02:37:21.759Z,31.13
2019-01-30T02:39:55.644Z,27.83
2019-01-30T02:42:26.785Z,26.67
2019-01-30T02:44:57.879Z,26.20
2019-01-30T02:47:30.026Z,26.25
2019-01-30T02:50:03.992Z,25.70
2019-01-30T02:52:38.513Z,26.07
2019-01-30T02:55:17.616Z,24.63
2019-01-30T02:57:49.703Z,23.57
2019-01-30T03:00:28.433Z,23.20
2019-01-30T03:03:02.973Z,25.83
2019-01-30T03:05:36.011Z,25.77
2019-01-30T03:08:11.870Z,25.97
2019-01-30T03:10:46.017Z,27.37
2019-01-30T03:13:21.173Z,26.13
2019-01-30T03:15:55.040Z,27.57
2019-01-30T03:18:27.555Z,27.30
2019-01-30T03:21:01.777Z,27.70
2019-01-30T03:23:36.573Z,26.90
2019-01-30T03:26:10.434Z,26.70
2019-01-30T03:28:42.276Z,25.43
2019-01-30T03:31:18.896Z,26.17
2019-01-30T03:33:50.692Z,24.90
2019-01-30T03:36:23.368Z,24.03
2019-01-30T03:38:57.330Z,24.73
2019-01-30T03:41:31.919Z,23.30
2019-01-30T03:44:05.802Z,23.50
2019-01-30T03:46:38.016Z,21.67
2019-01-30T03:49:10.629Z,21.57
2019-01-30T03:51:45.873Z,20.33
2019-01-30T03:54:18.743Z,19.42
2019-01-30T03:56:52.755Z,20.13
2019-01-30T03:59:25.653Z,18.75
2019-01-30T04:01:58.674Z,18.20
2019-01-30T04:04:30.930Z,19.02
2019-01-30T04:07:03.108Z,19.07
2019-01-30T04:09:36.031Z,18.67
2019-01-30T04:12:11.095Z,17.73
2019-01-30T04:14:42.999Z,19.43
2019-01-30T04:17:17.420Z,18.53
2019-01-30T04:19:49.610Z,18.23
2019-01-30T04:22:24.577Z,18.30
2019-01-30T04:25:03.890Z,18.87
2019-01-30T04:27:35.609Z,18.77
2019-01-30T04:30:13.560Z,19.05
2019-01-30T04:32:51.625Z,20.53
2019-01-30T04:35:25.611Z,21.00
2019-01-30T04:38:00.526Z,20.53
2019-01-30T04:40:31.932Z,21.23
2019-01-30T04:43:06.018Z,22.03
2019-01-30T04:45:37.793Z,20.33
2019-01-30T04:48:09.532Z,21.17
2019-01-30T04:50:43.642Z,21.50
2019-01-30T04:53:16.349Z,19.55
2019-01-30T04:55:50.973Z,19.43
2019-01-30T04:58:25.627Z,21.55
2019-01-30T05:01:00.567Z,21.97
2019-01-30T05:03:33.758Z,20.77
2019-01-30T05:06:06.882Z,20.07
2019-01-30T05:08:38.902Z,20.33
2019-01-30T05:11:10.621Z,21.55
2019-01-30T05:13:42.373Z,21.00
2019-01-30T05:16:15.360Z,23.00
2019-01-30T05:18:47.389Z,23.00
2019-01-30T05:21:19.634Z,22.80
2019-01-30T05:23:54.436Z,22.83
2019-01-30T05:26:27.387Z,23.30
2019-01-30T05:28:58.449Z,23.13
2019-01-30T05:31:29.502Z,23.33
2019-01-30T05:34:02.021Z,22.73
2019-01-30T05:36:33.464Z,21.27
2019-01-30T05:39:06.512Z,22.82
2019-01-30T05:41:42.469Z,22.93
2019-01-30T05:44:16.713Z,22.80
2019-01-30T05:46:50.119Z,22.90
2019-01-30T05:49:22.934Z,21.87
2019-01-30T05:51:55.477Z,23.17
2019-01-30T05:54:29.111Z,24.25
2019-01-30T05:57:02.468Z,22.90
2019-01-30T05:59:37.060Z,23.73
2019-01-30T06:02:12.209Z,23.73
2019-01-30T06:04:49.551Z,24.07
2019-01-30T06:07:23.087Z,24.47
2019-01-30T06:09:57.147Z,24.03
2019-01-30T06:12:29.199Z,24.53
2019-01-30T06:15:01.280Z,25.20
2019-01-30T06:17:32.798Z,25.40
2019-01-30T06:20:07.970Z,25.70
2019-01-30T06:22:39.702Z,27.30
2019-01-30T06:25:12.924Z,26.73
2019-01-30T06:27:43.953Z,27.33
2019-01-30T06:30:19.191Z,29.20
2019-01-30T06:32:52.970Z,27.65
2019-01-30T06:35:25.523Z,29.32
2019-01-30T06:37:56.612Z,29.93
2019-01-30T06:40:34.664Z,30.23
2019-01-30T06:43:09.598Z,30.25
2019-01-30T06:45:47.015Z,30.27
2019-01-30T06:48:18.753Z,29.43
2019-01-30T06:50:50.931Z,29.35
2019-01-30T06:53:23.624Z,29.43
2019-01-30T06:55:55.262Z,29.50
2019-01-30T06:58:29.493Z,30.73
2019-01-30T07:01:01.230Z,28.93
2019-01-30T07:03:33.700Z,31.73
2019-01-30T07:06:07.881Z,31.53
2019-01-30T07:08:44.065Z,31.77
2019-01-30T07:11:16.463Z,31.40
2019-01-30T07:13:48.771Z,32.07
2019-01-30T07:16:24.678Z,34.03
2019-01-30T07:18:58.952Z,33.57
2019-01-30T07:21:30.440Z,33.37
2019-01-30T07:24:04.281Z,32.07
2019-01-30T07:26:37.462Z,32.53
2019-01-30T07:29:08.968Z,34.60
2019-01-30T07:31:42.891Z,34.67
2019-01-30T07:34:14.916Z,36.43
2019-01-30T07:36:46.129Z,35.07
2019-01-30T07:39:18.175Z,36.25
2019-01-30T07:41:53.107Z,37.07
2019-01-30T07:44:25.638Z,37.67
2019-01-30T07:46:59.431Z,37.57
2019-01-30T07:49:32.499Z,38.80
2019-01-30T07:52:03.989Z,39.20
2019-01-30T07:54:36.103Z,39.30
2019-01-30T07:57:07.411Z,41.47
2019-01-30T07:59:40.076Z,40.60
2019-01-30T08:02:11.318Z,41.05
2019-01-30T08:04:43.275Z,43.47
2019-01-30T08:07:15.425Z,41.07
2019-01-30T08:09:47.245Z,41.87
2019-01-30T08:12:18.353Z,45.17
2019-01-30T08:14:53.312Z,44.27
2019-01-30T08:17:25.723Z,43.30
2019-01-30T08:19:56.860Z,45.30
2019-01-30T08:22:27.848Z,45.93
2019-01-30T08:24:58.921Z,46.00
2019-01-30T08:27:30.254Z,45.77
2019-01-30T08:30:01.693Z,46.60
2019-01-30T08:32:33.260Z,44.23
2019-01-30T08:35:07.288Z,47.73
2019-01-30T08:37:38.821Z,48.37
2019-01-30T08:40:13.432Z,47.97
2019-01-30T08:42:45.509Z,45.17
2019-01-30T08:45:19.961Z,48.45
2019-01-30T08:47:51.005Z,47.20
2019-01-30T08:50:24.237Z,47.67
2019-01-30T08:52:56.561Z,49.13
2019-01-30T08:55:32.018Z,50.20
2019-01-30T08:58:07.584Z,50.75
2019-01-30T09:00:39.112Z,52.70
2019-01-30T09:03:14.839Z,50.78
2019-01-30T09:05:44.396Z,49.93
2019-01-30T09:08:15.453Z,50.50
2019-01-30T09:10:49.963Z,50.07
2019-01-30T09:13:25.694Z,52.45
2019-01-30T09:16:01.461Z,55.35
2019-01-30T09:18:32.754Z,52.93
2019-01-30T09:21:07.488Z,52.03
2019-01-30T09:23:39.170Z,52.53
2019-01-30T09:26:17.743Z,52.38
2019-01-30T09:28:53.105Z,53.83
2019-01-30T09:31:25.829Z,55.38
2019-01-30T09:33:59.467Z,53.87
2019-01-30T09:36:30.438Z,55.10
2019-01-30T09:39:02.546Z,55.53
2019-01-30T09:41:37.167Z,55.60
2019-01-30T09:44:08.405Z,52.83
2019-01-30T09:46:41.086Z,53.07
2019-01-30T09:49:13.251Z,54.70
2019-01-30T09:51:45.775Z,55.17
2019-01-30T09:54:20.153Z,56.77
2019-01-30T09:56:53.220Z,54.47
2019-01-30T09:59:28.425Z,56.33
2019-01-30T10:02:04.988Z,58.95
2019-01-30T10:04:39.705Z,58.40
2019-01-30T10:07:10.803Z,58.60
2019-01-30T10:09:44.261Z,57.15
2019-01-30T10:12:17.747Z,56.00
2019-01-30T10:14:49.122Z,56.70
2019-01-30T10:17:21.044Z,56.60
2019-01-30T10:19:53.384Z,57.10
2019-01-30T10:22:24.461Z,55.00
2019-01-30T10:24:57.052Z,58.43
2019-01-30T10:27:28.033Z,58.07
2019-01-30T10:30:01.313Z,56.60
2019-01-30T10:32:37.062Z,57.80
2019-01-30T10:35:10.871Z,60.03
2019-01-30T10:37:42.688Z,58.03
2019-01-30T10:40:22.604Z,57.37
2019-01-30T10:42:57.429Z,57.47
2019-01-30T10:45:32.147Z,54.93
2019-01-30T10:48:04.710Z,55.77
2019-01-30T10:50:36.512Z,57.83
2019-01-30T10:53:10.596Z,54.13
2019-01-30T10:55:44.098Z,51.97
2019-01-30T10:58:20.947Z,57.13
2019-01-30T11:00:54.613Z,54.20
2019-01-30T11:03:26.834Z,59.03
2019-01-30T11:05:58.653Z,59.40
2019-01-30T11:08:30.916Z,56.53
2019-01-30T11:11:10.424Z,55.78
2019-01-30T11:13:42.532Z,51.90
2019-01-30T11:16:13.712Z,50.17
2019-01-30T11:18:45.191Z,50.07
2019-01-30T11:21:19.126Z,51.60
2019-01-30T11:23:50.247Z,52.10
2019-01-30T11:26:22.927Z,55.70
2019-01-30T11:28:57.306Z,52.17
2019-01-30T11:31:28.702Z,51.27
2019-01-30T11:34:07.267Z,47.50
2019-01-30T11:36:34.195Z,50.90
2019-01-30T11:39:09.887Z,49.73
2019-01-30T11:41:43.309Z,49.00
2019-01-30T11:44:15.378Z,46.90
2019-01-30T11:46:51.452Z,48.50
2019-01-30T11:49:24.731Z,45.98
2019-01-30T11:51:55.948Z,46.85
2019-01-30T11:54:26.986Z,47.40
2019-01-30T11:57:03.431Z,45.90
2019-01-30T11:59:35.826Z,43.38
2019-01-30T12:02:07.174Z,43.70
2019-01-30T12:04:39.021Z,43.57
2019-01-30T12:07:14.252Z,44.67
2019-01-30T12:09:46.395Z,41.20
2019-01-30T12:12:19.562Z,42.67
2019-01-30T12:14:50.916Z,44.73
2019-01-30T12:17:21.952Z,42.60
2019-01-30T12:19:54.248Z,44.87
2019-01-30T12:22:26.002Z,46.07
2019-01-30T12:24:59.181Z,44.40
2019-01-30T12:27:32.895Z,45.80
2019-01-30T12:30:05.357Z,46.23
2019-01-30T12:32:38.150Z,43.87
2019-01-30T12:35:10.958Z,43.63
2019-01-30T12:37:42.678Z,43.80
2019-01-30T12:40:16.997Z,43.40
2019-01-30T12:42:51.311Z,44.00
2019-01-30T12:45:29.131Z,46.13
2019-01-30T12:48:05.591Z,44.83
2019-01-30T12:50:38.798Z,43.90
2019-01-30T12:53:11.528Z,44.90
2019-01-30T12:55:46.192Z,41.90
2019-01-30T12:58:21.456Z,42.37
2019-01-30T13:00:55.183Z,42.00
2019-01-30T13:03:28.297Z,43.77
2019-01-30T13:06:00.797Z,43.03
2019-01-30T13:08:33.811Z,44.17
2019-01-30T13:11:06.949Z,40.63
2019-01-30T13:13:38.744Z,43.00
2019-01-30T13:16:12.722Z,41.58
2019-01-30T13:18:43.768Z,42.57
2019-01-30T13:21:17.469Z,43.45
2019-01-30T13:23:49.971Z,44.73
2019-01-30T13:26:22.601Z,43.55
2019-01-30T13:28:54.648Z,45.13
2019-01-30T13:31:30.098Z,46.17
2019-01-30T13:34:05.164Z,44.83
2019-01-30T13:36:40.174Z,44.97
2019-01-30T13:39:13.787Z,46.25
2019-01-30T13:41:46.637Z,43.00
2019-01-30T13:44:21.208Z,45.07
2019-01-30T13:46:53.335Z,43.80
2019-01-30T13:49:27.135Z,47.20
2019-01-30T13:51:58.706Z,48.43
2019-01-30T13:54:30.907Z,45.60
2019-01-30T13:57:02.116Z,47.37
2019-01-30T13:59:34.909Z,47.55
2019-01-30T14:02:09.098Z,46.53
2019-01-30T14:04:40.132Z,45.67
2019-01-30T14:07:11.265Z,42.47
2019-01-30T14:09:43.463Z,45.67
2019-01-30T14:12:15.186Z,47.00
2019-01-30T14:14:47.419Z,48.73
2019-01-30T14:17:24.865Z,46.18
2019-01-30T14:19:56.039Z,50.30
2019-01-30T14:22:28.977Z,47.63
2019-01-30T14:25:02.349Z,54.57
2019-01-30T14:27:35.131Z,56.97
2019-01-30T14:30:13.486Z,52.20
2019-01-30T14:32:47.195Z,29.95
2019-01-30T14:35:20.570Z,30.73
2019-01-30T14:37:52.273Z,31.60
2019-01-30T14:40:24.891Z,37.07
2019-01-30T14:42:56.173Z,38.67
2019-01-30T14:45:27.370Z,48.80
2019-01-30T14:47:58.730Z,45.53
2019-01-30T14:50:29.997Z,47.60
2019-01-30T14:53:01.186Z,47.40
2019-01-30T14:55:36.718Z,45.90
2019-01-30T14:58:09.666Z,33.57
2019-01-30T15:00:40.943Z,34.17
2019-01-30T15:03:15.840Z,34.03
2019-01-30T15:05:49.954Z,37.70
2019-01-30T15:08:24.213Z,33.87
2019-01-30T15:10:56.142Z,31.67
2019-01-30T15:13:27.932Z,33.48
2019-01-30T15:15:58.972Z,28.77
2019-01-30T15:18:30.662Z,28.80
2019-01-30T15:21:03.500Z,29.30
2019-01-30T15:23:34.657Z,31.57
2019-01-30T15:26:06.709Z,34.25
2019-01-30T15:28:37.757Z,33.33
2019-01-30T15:31:08.940Z,27.43
2019-01-30T15:33:41.046Z,27.53
2019-01-30T15:36:13.028Z,30.33
2019-01-30T15:38:46.190Z,30.87
2019-01-30T15:41:17.629Z,27.37
2019-01-30T15:43:49.739Z,28.50
2019-01-30T15:46:21.715Z,28.67
2019-01-30T15:48:53.790Z,28.73
2019-01-30T15:51:25.143Z,35.93
2019-01-30T15:53:57.579Z,35.40
2019-01-30T15:56:30.358Z,35.10
2019-01-30T15:59:01.543Z,38.47
2019-01-30T16:01:39.477Z,37.73
2019-01-30T16:04:10.550Z,36.38
2019-01-30T16:06:41.567Z,34.53
2019-01-30T16:09:12.688Z,33.40
2019-01-30T16:11:44.365Z,30.43
2019-01-30T16:14:17.534Z,28.80
2019-01-30T16:16:49.841Z,29.07
2019-01-30T16:19:20.942Z,29.57
2019-01-30T16:21:52.409Z,31.07
2019-01-30T16:24:24.031Z,31.37
2019-01-30T16:26:55.744Z,34.87
2019-01-30T16:29:27.081Z,36.42
2019-01-30T16:31:58.986Z,38.33
2019-01-30T16:34:30.416Z,41.17
2019-01-30T16:37:02.346Z,45.77
2019-01-30T16:39:33.656Z,49.70
2019-01-30T16:42:05.412Z,59.40
2019-01-30T16:44:36.567Z,64.07
2019-01-30T16:47:08.233Z,66.60
2019-01-30T16:49:40.584Z,69.57
2019-01-30T16:52:11.780Z,71.65
2019-01-30T16:54:43.598Z,77.53
2019-01-30T16:57:15.367Z,80.13
2019-01-30T16:59:46.731Z,80.80
2019-01-30T17:02:17.781Z,90.50
2019-01-30T17:04:49.395Z,93.05
2019-01-30T17:07:20.607Z,92.83
2019-01-30T17:09:52.329Z,92.00
2019-01-30T17:12:24.456Z,94.47
2019-01-30T17:14:56.063Z,93.93
2019-01-30T17:17:27.260Z,87.70
2019-01-30T17:19:58.383Z,90.13
2019-01-30T17:22:29.519Z,90.27
2019-01-30T17:25:00.753Z,87.87
2019-01-30T17:27:31.802Z,88.60
2019-01-30T17:30:03.021Z,84.47
2019-01-30T17:32:34.227Z,86.97
2019-01-30T17:35:06.510Z,90.53
2019-01-30T17:37:37.634Z,94.73
2019-01-30T17:40:13.476Z,95.80
2019-01-30T17:42:44.611Z,105.63
2019-01-30T17:45:15.845Z,113.57
2019-01-30T17:47:47.302Z,116.50
2019-01-30T17:50:20.949Z,112.22
2019-01-30T17:52:52.150Z,112.60
2019-01-30T17:55:26.019Z,114.37
2019-01-30T17:57:56.538Z,107.27
2019-01-30T18:00:57.654Z,107.70
2019-01-30T18:03:28.769Z,105.30
2019-01-30T18:05:59.819Z,105.60
2019-01-30T18:08:30.951Z,106.00
2019-01-30T18:11:01.969Z,104.83
2019-01-30T18:13:32.994Z,103.27
2019-01-30T18:16:04.253Z,99.57
2019-01-30T18:18:35.764Z,102.57
2019-01-30T18:21:06.745Z,105.95
2019-01-30T18:23:37.845Z,101.47
2019-01-30T18:26:08.822Z,99.57
2019-01-30T18:28:39.853Z,104.43
2019-01-30T18:31:10.925Z,100.38
2019-01-30T18:33:42.337Z,102.80
2019-01-30T18:36:13.688Z,105.30
2019-01-30T18:38:44.964Z,104.17
2019-01-30T18:41:16.031Z,103.65
2019-01-30T18:43:47.075Z,107.07
2019-01-30T18:46:18.281Z,103.50
2019-01-30T18:48:49.492Z,96.60
2019-01-30T18:51:20.575Z,92.03
2019-01-30T18:53:51.743Z,95.23
2019-01-30T18:56:23.090Z,90.30
2019-01-30T18:58:54.331Z,99.13
2019-01-30T19:01:25.791Z,98.87
2019-01-30T19:03:56.899Z,93.97
2019-01-30T19:06:28.149Z,97.00
2019-01-30T19:08:59.242Z,98.23
2019-01-30T19:11:30.841Z,96.60
2019-01-30T19:14:01.950Z,100.73
2019-01-30T19:16:33.122Z,90.77
2019-01-30T19:19:04.411Z,96.23
2019-01-30T19:21:36.337Z,89.20
2019-01-30T19:24:07.599Z,92.77
2019-01-30T19:26:38.803Z,89.00
2019-01-30T19:29:11.651Z,87.83
2019-01-30T19:31:42.692Z,85.63
2019-01-30T19:34:15.436Z,80.27
2019-01-30T19:36:46.954Z,76.60
2019-01-30T19:39:17.977Z,86.32
2019-01-30T19:41:50.359Z,80.33
2019-01-30T19:44:21.688Z,85.17
2019-01-30T19:46:55.833Z,82.10
2019-01-30T19:49:25.889Z,88.07
2019-01-30T19:51:57.279Z,90.33
2019-01-30T19:54:28.394Z,81.57
2019-01-30T19:56:59.698Z,83.77
2019-01-30T19:59:30.698Z,83.87
2019-01-30T20:02:02.198Z,83.40
2019-01-30T20:04:35.090Z,82.30
2019-01-30T20:07:14.507Z,74.73
2019-01-30T20:09:39.298Z,73.47
2019-01-30T20:12:10.445Z,78.75
2019-01-30T20:14:41.706Z,69.50
2019-01-30T20:17:13.150Z,68.75
2019-01-30T20:19:44.736Z,65.67
2019-01-30T20:22:15.915Z,63.25
2019-01-30T20:24:46.973Z,58.40
2019-01-30T20:27:18.387Z,60.17
2019-01-30T20:29:49.729Z,60.00
2019-01-30T20:32:20.723Z,57.30
2019-01-30T20:34:52.488Z,57.67
2019-01-30T20:37:26.374Z,55.53
2019-01-30T20:39:56.717Z,57.00
2019-01-30T20:42:27.921Z,55.45
2019-01-30T20:44:58.985Z,53.77
2019-01-30T20:47:30.031Z,51.77
2019-01-30T20:50:01.123Z,53.37
2019-01-30T20:52:32.412Z,54.70
2019-01-30T20:55:04.626Z,56.27
2019-01-30T20:57:35.886Z,57.37
2019-01-30T21:00:10.368Z,54.67
2019-01-30T21:02:41.841Z,54.43
2019-01-30T21:05:13.326Z,58.43
2019-01-30T21:07:44.613Z,56.43
2019-01-30T21:10:18.741Z,55.80
2019-01-30T21:12:51.546Z,48.53
2019-01-30T21:15:23.548Z,49.13
2019-01-30T21:17:58.111Z,47.90
2019-01-30T21:20:29.215Z,46.20
2019-01-30T21:23:01.376Z,47.73
2019-01-30T21:25:33.861Z,47.57
2019-01-30T21:28:05.433Z,52.50
2019-01-30T21:30:37.806Z,51.50
2019-01-30T21:33:08.996Z,50.92
2019-01-30T21:35:40.776Z,52.37
2019-01-30T21:38:11.908Z,51.10
2019-01-30T21:40:43.195Z,48.50
2019-01-30T21:43:14.366Z,53.43
2019-01-30T21:45:45.436Z,56.27
2019-01-30T21:48:17.603Z,62.47
2019-01-30T21:50:48.887Z,57.33
2019-01-30T21:53:20.050Z,59.60
2019-01-30T21:55:51.254Z,63.67
2019-01-30T21:58:22.398Z,57.90
2019-01-30T22:00:53.731Z,53.13
2019-01-30T22:03:25.121Z,54.00
2019-01-30T22:05:56.945Z,53.83
2019-01-30T22:08:27.999Z,51.67
2019-01-30T22:10:59.125Z,53.87
2019-01-30T22:13:30.264Z,50.27
2019-01-30T22:16:01.416Z,52.03
2019-01-30T22:18:32.660Z,50.85
2019-01-30T22:21:03.759Z,52.23
2019-01-30T22:23:35.085Z,50.13
2019-01-30T22:26:06.275Z,50.53
2019-01-30T22:28:37.463Z,50.13
2019-01-30T22:31:10.054Z,47.10
2019-01-30T22:33:41.337Z,49.57
2019-01-30T22:36:12.802Z,51.30
2019-01-30T22:38:45.337Z,50.38
2019-01-30T22:41:16.483Z,51.10
2019-01-30T22:43:48.689Z,53.23
2019-01-30T22:46:21.090Z,55.28
2019-01-30T22:48:55.041Z,57.47
2019-01-30T22:51:26.674Z,59.73
2019-01-30T22:53:58.800Z,56.37
2019-01-30T22:56:30.047Z,60.27
2019-01-30T22:59:01.285Z,69.20
2019-01-30T23:02:02.716Z,76.50
2019-01-30T23:05:26.694Z,74.77
2019-01-30T23:08:22.925Z,70.07
2019-01-30T23:11:17.255Z,75.13
2019-01-30T23:14:27.272Z,74.00
2019-01-30T23:17:28.522Z,71.03
2019-01-30T23:20:31.353Z,76.57
2019-01-30T23:23:27.727Z,73.97
2019-01-30T23:26:17.617Z,75.30
2019-01-30T23:29:34.207Z,74.23
2019-01-30T23:32:43.917Z,69.07
2019-01-30T23:35:50.444Z,72.08
2019-01-30T23:38:53.450Z,71.90
2019-01-30T23:41:55.726Z,76.53
2019-01-30T23:44:56.641Z,72.50
2019-01-30T23:48:17.758Z,71.10
2019-01-30T23:51:16.306Z,77.93
2019-01-30T23:54:16.045Z,79.47
2019-01-30T23:57:10.431Z,74.53
